createdAt,value
2023-04-29T00:01:16.999Z,3.83
2023-04-29T00:04:10.425Z,3.70
2023-04-29T00:06:39.007Z,3.50
2023-04-29T00:09:07.458Z,3.53
2023-04-29T00:11:36.264Z,3.60
2023-04-29T00:14:04.773Z,3.63
2023-04-29T00:16:34.655Z,3.50
2023-04-29T00:19:03.462Z,3.93
2023-04-29T00:21:33.284Z,4.00
2023-04-29T00:24:01.745Z,3.73
2023-04-29T00:26:36.072Z,3.57
2023-04-29T00:29:04.583Z,3.90
2023-04-29T00:31:34.461Z,3.53
2023-04-29T00:34:03.043Z,3.77
2023-04-29T00:36:32.466Z,4.13
2023-04-29T00:39:00.937Z,4.33
2023-04-29T00:41:29.417Z,4.30
2023-04-29T00:43:57.817Z,3.93
2023-04-29T00:46:26.413Z,4.20
2023-04-29T00:48:56.307Z,4.10
2023-04-29T00:51:25.482Z,4.40
2023-04-29T00:53:54.465Z,4.13
2023-04-29T00:56:23.704Z,3.90
2023-04-29T00:58:53.147Z,3.70
2023-04-29T01:01:22.429Z,4.27
2023-04-29T01:03:51.687Z,3.60
2023-04-29T01:06:38.563Z,4.00
2023-04-29T01:09:36.972Z,3.90
2023-04-29T01:12:36.347Z,4.07
2023-04-29T01:15:13.152Z,4.30
2023-04-29T01:17:50.722Z,4.10
2023-04-29T01:20:38.745Z,4.43
2023-04-29T01:23:08.560Z,4.43
2023-04-29T01:25:38.864Z,4.63
2023-04-29T01:28:21.534Z,3.70
2023-04-29T01:31:02.079Z,4.30
2023-04-29T01:34:07.874Z,4.50
2023-04-29T01:36:54.316Z,4.30
2023-04-29T01:39:34.861Z,4.60
2023-04-29T01:42:19.336Z,4.50
2023-04-29T01:44:51.088Z,5.27
2023-04-29T01:47:21.687Z,4.47
2023-04-29T01:49:51.320Z,4.77
2023-04-29T01:52:28.802Z,4.47
2023-04-29T01:54:57.620Z,4.63
2023-04-29T01:57:27.545Z,4.60
2023-04-29T01:59:57.297Z,4.73
2023-04-29T02:02:25.860Z,5.00
2023-04-29T02:04:54.814Z,5.07
2023-04-29T02:07:29.653Z,4.57
2023-04-29T02:09:58.110Z,5.07
2023-04-29T02:12:28.011Z,5.00
2023-04-29T02:14:56.538Z,4.50
2023-04-29T02:17:25.066Z,4.67
2023-04-29T02:19:55.051Z,5.07
2023-04-29T02:22:23.788Z,5.37
2023-04-29T02:24:52.302Z,4.77
2023-04-29T02:27:20.884Z,4.57
2023-04-29T02:29:51.693Z,4.47
2023-04-29T02:32:21.167Z,5.00
2023-04-29T02:34:49.720Z,4.53
2023-04-29T02:37:18.434Z,4.83
2023-04-29T02:39:47.160Z,5.03
2023-04-29T02:42:15.722Z,4.60
2023-04-29T02:44:44.150Z,4.30
2023-04-29T02:47:14.057Z,4.80
2023-04-29T02:49:42.566Z,4.70
2023-04-29T02:52:11.097Z,4.80
2023-04-29T02:54:40.182Z,5.00
2023-04-29T02:57:09.123Z,4.63
2023-04-29T02:59:38.104Z,4.87
2023-04-29T03:02:06.655Z,4.67
2023-04-29T03:04:36.625Z,5.00
2023-04-29T03:07:05.420Z,5.10
2023-04-29T03:09:59.703Z,4.93
2023-04-29T03:12:28.309Z,4.57
2023-04-29T03:14:57.009Z,4.40
2023-04-29T03:17:25.595Z,4.80
2023-04-29T03:19:55.526Z,5.37
2023-04-29T03:22:23.956Z,4.87
2023-04-29T03:24:52.494Z,4.70
2023-04-29T03:27:20.980Z,4.90
2023-04-29T03:29:49.439Z,5.33
2023-04-29T03:32:18.105Z,4.90
2023-04-29T03:34:46.540Z,5.00
2023-04-29T03:37:17.044Z,4.97
2023-04-29T03:39:45.542Z,5.20
2023-04-29T03:42:14.064Z,4.83
2023-04-29T03:44:42.656Z,5.17
2023-04-29T03:47:11.099Z,5.07
2023-04-29T03:49:39.756Z,5.90
2023-04-29T03:52:08.316Z,5.33
2023-04-29T03:54:38.182Z,4.97
2023-04-29T03:57:06.672Z,6.00
2023-04-29T03:59:35.190Z,5.37
2023-04-29T04:02:03.718Z,5.37
2023-04-29T04:04:32.517Z,5.20
2023-04-29T04:07:01.078Z,6.03
2023-04-29T04:09:29.549Z,5.57
2023-04-29T04:12:00.214Z,6.43
2023-04-29T04:14:55.533Z,7.40
2023-04-29T04:17:24.105Z,5.77
2023-04-29T04:19:52.968Z,6.07
2023-04-29T04:22:21.694Z,5.87
2023-04-29T04:25:15.680Z,6.80
2023-04-29T04:27:45.861Z,7.03
2023-04-29T04:30:14.774Z,8.53
2023-04-29T04:32:43.268Z,8.27
2023-04-29T04:35:11.852Z,9.00
2023-04-29T04:37:40.393Z,8.37
2023-04-29T04:40:11.412Z,8.77
2023-04-29T04:42:39.888Z,7.50
2023-04-29T04:45:11.885Z,7.00
2023-04-29T04:47:43.166Z,6.23
2023-04-29T04:50:12.052Z,6.07
2023-04-29T04:52:40.561Z,5.50
2023-04-29T04:55:11.328Z,5.70
2023-04-29T04:57:41.099Z,5.83
2023-04-29T05:00:13.392Z,6.77
2023-04-29T05:02:42.006Z,5.80
2023-04-29T05:05:10.827Z,5.83
2023-04-29T05:07:39.871Z,6.27
2023-04-29T05:10:10.062Z,7.50
2023-04-29T05:13:03.351Z,6.80
2023-04-29T05:15:58.802Z,6.13
2023-04-29T05:18:56.325Z,6.50
2023-04-29T05:21:24.855Z,5.87
2023-04-29T05:23:53.333Z,5.63
2023-04-29T05:26:21.861Z,5.90
2023-04-29T05:28:50.447Z,6.17
2023-04-29T05:31:20.289Z,6.50
2023-04-29T05:33:49.124Z,5.60
2023-04-29T05:36:17.609Z,6.03
2023-04-29T05:38:46.384Z,5.97
2023-04-29T05:41:15.239Z,5.70
2023-04-29T05:43:43.750Z,6.00
2023-04-29T05:46:12.346Z,5.80
2023-04-29T05:48:42.221Z,6.10
2023-04-29T05:51:10.851Z,7.73
2023-04-29T05:53:40.674Z,6.43
2023-04-29T05:56:09.249Z,6.67
2023-04-29T05:58:38.027Z,8.20
2023-04-29T06:01:07.214Z,7.50
2023-04-29T06:03:36.030Z,6.87
2023-04-29T06:06:06.354Z,6.10
2023-04-29T06:08:34.992Z,6.60
2023-04-29T06:11:11.400Z,6.60
2023-04-29T06:13:39.855Z,5.63
2023-04-29T06:16:08.994Z,5.70
2023-04-29T06:18:37.513Z,5.70
2023-04-29T06:21:07.501Z,6.50
2023-04-29T06:23:35.999Z,6.20
2023-04-29T06:26:04.478Z,8.30
2023-04-29T06:28:32.924Z,6.67
2023-04-29T06:31:01.454Z,11.73
2023-04-29T06:33:30.523Z,8.43
2023-04-29T06:35:58.932Z,10.63
2023-04-29T06:38:28.799Z,11.50
2023-04-29T06:41:00.666Z,9.40
2023-04-29T06:43:29.187Z,8.03
2023-04-29T06:45:57.935Z,6.23
2023-04-29T06:48:27.601Z,6.73
2023-04-29T06:50:58.175Z,6.40
2023-04-29T06:53:28.266Z,6.93
2023-04-29T06:55:56.912Z,6.03
2023-04-29T06:58:25.456Z,5.80
2023-04-29T07:01:29.488Z,6.13
2023-04-29T07:03:58.186Z,6.43
2023-04-29T07:06:26.962Z,6.23
2023-04-29T07:08:57.200Z,5.53
2023-04-29T07:11:34.888Z,5.90
2023-04-29T07:14:03.301Z,4.83
2023-04-29T07:16:31.799Z,5.07
2023-04-29T07:19:00.454Z,6.20
2023-04-29T07:21:28.927Z,5.63
2023-04-29T07:24:01.145Z,6.90
2023-04-29T07:26:29.710Z,5.00
2023-04-29T07:28:58.189Z,5.27
2023-04-29T07:31:26.800Z,5.17
2023-04-29T07:33:55.551Z,5.07
2023-04-29T07:36:24.101Z,5.90
2023-04-29T07:38:52.843Z,5.30
2023-04-29T07:41:22.576Z,5.30
2023-04-29T07:43:51.045Z,4.70
2023-04-29T07:46:19.512Z,5.93
2023-04-29T07:48:47.971Z,5.70
2023-04-29T07:51:17.004Z,5.50
2023-04-29T07:53:45.442Z,5.53
2023-04-29T07:56:13.870Z,5.10
2023-04-29T07:58:43.697Z,7.20
2023-04-29T08:01:13.051Z,5.83
2023-04-29T08:03:42.338Z,5.70
2023-04-29T08:06:11.009Z,5.67
2023-04-29T08:08:39.586Z,5.03
2023-04-29T08:11:07.972Z,4.73
2023-04-29T08:13:36.450Z,5.33
2023-04-29T08:16:06.769Z,5.17
2023-04-29T08:18:36.729Z,4.60
2023-04-29T08:21:05.388Z,5.10
2023-04-29T08:23:34.234Z,4.70
2023-04-29T08:26:03.574Z,4.73
2023-04-29T08:28:32.119Z,5.03
2023-04-29T08:31:00.624Z,4.60
2023-04-29T08:33:30.523Z,4.80
2023-04-29T08:36:03.739Z,5.00
2023-04-29T08:38:32.415Z,4.80
2023-04-29T08:41:00.855Z,4.77
2023-04-29T08:43:30.023Z,4.70
2023-04-29T08:46:00.523Z,4.13
2023-04-29T08:48:31.745Z,4.20
2023-04-29T08:51:01.814Z,4.70
2023-04-29T08:53:30.475Z,5.23
2023-04-29T08:56:04.961Z,4.60
2023-04-29T08:58:40.426Z,4.50
2023-04-29T09:01:10.838Z,4.67
2023-04-29T09:03:48.198Z,5.43
2023-04-29T09:06:17.822Z,3.90
2023-04-29T09:08:46.505Z,4.27
2023-04-29T09:11:16.274Z,5.00
2023-04-29T09:13:44.697Z,4.10
2023-04-29T09:16:13.994Z,4.23
2023-04-29T09:18:49.554Z,4.70
2023-04-29T09:21:22.378Z,3.93
2023-04-29T09:23:54.120Z,4.47
2023-04-29T09:26:24.210Z,4.40
2023-04-29T09:29:10.084Z,4.07
2023-04-29T09:31:40.401Z,4.80
2023-04-29T09:34:11.886Z,4.77
2023-04-29T09:36:46.358Z,4.57
2023-04-29T09:39:17.560Z,4.10
2023-04-29T09:42:07.332Z,4.07
2023-04-29T09:44:37.036Z,3.93
2023-04-29T09:47:07.814Z,3.70
2023-04-29T09:49:41.192Z,4.00
2023-04-29T09:52:12.467Z,4.00
2023-04-29T09:54:43.040Z,3.20
2023-04-29T09:57:15.055Z,3.83
2023-04-29T09:59:44.395Z,3.80
2023-04-29T10:02:17.850Z,3.57
2023-04-29T10:04:57.456Z,3.93
2023-04-29T10:07:29.482Z,3.43
2023-04-29T10:09:58.746Z,3.60
2023-04-29T10:12:27.515Z,3.87
2023-04-29T10:15:04.986Z,3.30
2023-04-29T10:17:47.155Z,3.37
2023-04-29T10:20:23.820Z,3.40
2023-04-29T10:22:54.851Z,3.20
2023-04-29T10:25:26.267Z,3.67
2023-04-29T10:27:56.704Z,3.40
2023-04-29T10:30:25.362Z,3.37
2023-04-29T10:32:54.035Z,3.03
2023-04-29T10:35:24.510Z,2.53
2023-04-29T10:37:54.759Z,2.30
2023-04-29T10:40:31.907Z,2.37
2023-04-29T10:43:01.296Z,2.70
2023-04-29T10:45:32.629Z,2.67
2023-04-29T10:48:26.793Z,2.60
2023-04-29T10:51:03.870Z,2.40
2023-04-29T10:54:08.539Z,2.10
2023-04-29T10:56:42.938Z,2.17
2023-04-29T10:59:14.408Z,2.13
2023-04-29T11:01:51.696Z,2.67
2023-04-29T11:04:27.775Z,2.43
2023-04-29T11:06:59.666Z,3.23
2023-04-29T11:09:30.376Z,2.50
2023-04-29T11:12:05.502Z,2.70
2023-04-29T11:14:38.033Z,3.17
2023-04-29T11:17:11.044Z,2.50
2023-04-29T11:19:45.157Z,2.10
2023-04-29T11:22:26.716Z,2.57
2023-04-29T11:24:58.693Z,2.30
2023-04-29T11:27:31.458Z,2.17
2023-04-29T11:30:09.473Z,2.10
2023-04-29T11:32:40.565Z,2.40
2023-04-29T11:35:10.696Z,2.30
2023-04-29T11:37:41.793Z,2.60
2023-04-29T11:40:13.167Z,2.10
2023-04-29T11:42:45.398Z,2.07
2023-04-29T11:45:15.253Z,2.30
2023-04-29T11:47:46.646Z,2.30
2023-04-29T11:50:17.864Z,2.70
2023-04-29T11:52:49.629Z,2.33
2023-04-29T11:55:19.652Z,2.30
2023-04-29T11:57:52.374Z,1.97
2023-04-29T12:00:36.946Z,2.20
2023-04-29T12:03:16.031Z,2.27
2023-04-29T12:05:49.520Z,1.90
2023-04-29T12:08:22.756Z,2.00
2023-04-29T12:10:51.910Z,2.00
2023-04-29T12:13:22.181Z,1.80
2023-04-29T12:15:52.522Z,1.67
2023-04-29T12:18:23.430Z,2.07
2023-04-29T12:20:52.653Z,1.83
2023-04-29T12:23:26.727Z,1.87
2023-04-29T12:25:59.326Z,1.90
2023-04-29T12:28:28.462Z,1.47
2023-04-29T12:30:56.867Z,1.80
2023-04-29T12:33:27.570Z,1.87
2023-04-29T12:35:58.275Z,1.87
2023-04-29T12:38:31.107Z,1.73
2023-04-29T12:41:02.870Z,1.50
2023-04-29T12:43:35.069Z,2.07
2023-04-29T12:46:05.554Z,2.30
2023-04-29T12:48:37.262Z,1.70
2023-04-29T12:51:07.012Z,1.63
2023-04-29T12:53:37.251Z,1.80
2023-04-29T12:56:06.898Z,1.80
2023-04-29T12:58:35.449Z,1.87
2023-04-29T13:01:04.377Z,1.90
2023-04-29T13:03:34.284Z,1.47
2023-04-29T13:06:03.125Z,1.97
2023-04-29T13:08:31.686Z,1.80
2023-04-29T13:11:01.554Z,2.00
2023-04-29T13:13:30.313Z,1.77
2023-04-29T13:15:58.836Z,2.00
2023-04-29T13:18:27.729Z,1.77
2023-04-29T13:20:57.288Z,1.80
2023-04-29T13:23:25.994Z,1.67
2023-04-29T13:25:54.537Z,1.90
2023-04-29T13:28:24.455Z,21.00
2023-04-29T13:30:52.954Z,8.43
2023-04-29T13:33:21.395Z,1.80
2023-04-29T13:35:50.063Z,53.03
2023-04-29T13:38:18.809Z,3.97
2023-04-29T13:40:51.207Z,2.13
2023-04-29T13:44:02.524Z,2.40
2023-04-29T13:46:32.654Z,2.50
2023-04-29T13:52:16.918Z,1.40
2023-04-29T13:57:39.340Z,1.77
2023-04-29T13:59:50.617Z,1.73
2023-04-29T14:02:25.753Z,1.90
2023-04-29T14:04:55.644Z,1.60
2023-04-29T14:07:24.397Z,2.07
2023-04-29T14:09:52.996Z,4.77
2023-04-29T14:12:21.668Z,1.97
2023-04-29T14:14:51.909Z,2.17
2023-04-29T14:17:20.551Z,2.73
2023-04-29T14:19:48.971Z,6.03
2023-04-29T14:22:17.521Z,14.40
2023-04-29T14:24:46.453Z,40.97
2023-04-29T14:27:15.038Z,5.37
2023-04-29T14:29:43.576Z,2.77
2023-04-29T14:32:13.500Z,2.10
2023-04-29T14:34:42.532Z,2.37
2023-04-29T14:37:11.282Z,2.23
2023-04-29T14:39:39.776Z,2.23
2023-04-29T14:42:08.297Z,2.03
2023-04-29T14:44:48.993Z,2.40
2023-04-29T14:47:18.865Z,2.10
2023-04-29T14:50:27.750Z,2.60
2023-04-29T14:52:57.794Z,2.30
2023-04-29T14:55:26.288Z,2.43
2023-04-29T14:57:54.870Z,2.40
2023-04-29T15:00:23.296Z,2.50
2023-04-29T15:02:55.705Z,2.50
2023-04-29T15:05:24.194Z,2.10
2023-04-29T15:07:52.882Z,2.20
2023-04-29T15:10:21.518Z,3.47
2023-04-29T15:12:51.354Z,8.10
2023-04-29T15:15:44.819Z,58.93
2023-04-29T15:18:14.851Z,19.83
2023-04-29T15:20:43.608Z,8.77
2023-04-29T15:23:12.214Z,3.50
2023-04-29T15:25:40.572Z,6.00
2023-04-29T15:28:18.579Z,3.87
2023-04-29T15:30:47.653Z,2.87
2023-04-29T15:33:17.569Z,3.07
2023-04-29T15:35:46.461Z,2.60
2023-04-29T15:38:14.958Z,3.03
2023-04-29T15:40:43.389Z,2.80
2023-04-29T15:43:36.422Z,2.60
2023-04-29T15:46:55.015Z,2.80
2023-04-29T15:49:25.970Z,2.80
2023-04-29T15:51:54.403Z,3.87
2023-04-29T15:54:23.168Z,10.37
2023-04-29T15:56:51.947Z,8.43
2023-04-29T15:59:20.451Z,7.17
2023-04-29T16:01:48.996Z,5.50
2023-04-29T16:04:17.669Z,4.30
2023-04-29T16:06:47.576Z,6.07
2023-04-29T16:09:16.211Z,4.97
2023-04-29T16:11:44.612Z,4.80
2023-04-29T16:14:13.102Z,9.20
2023-04-29T16:16:41.647Z,5.17
2023-04-29T16:19:10.620Z,5.03
2023-04-29T16:21:39.706Z,21.10
2023-04-29T16:24:09.484Z,107.90
2023-04-29T16:26:40.375Z,141.83
2023-04-29T16:29:09.534Z,79.43
2023-04-29T16:31:38.179Z,29.53
2023-04-29T16:34:06.720Z,14.67
2023-04-29T16:36:44.329Z,4.53
2023-04-29T16:39:14.256Z,5.73
2023-04-29T16:41:43.061Z,6.93
2023-04-29T16:44:11.807Z,3.80
2023-04-29T16:46:40.413Z,4.40
2023-04-29T16:49:09.137Z,3.13
2023-04-29T16:51:37.650Z,3.17
2023-04-29T16:54:08.066Z,3.07
2023-04-29T16:56:37.962Z,4.27
2023-04-29T16:59:06.594Z,2.80
2023-04-29T17:01:35.121Z,3.00
2023-04-29T17:04:04.145Z,3.17
2023-04-29T17:06:34.792Z,3.20
2023-04-29T17:09:03.628Z,4.20
2023-04-29T17:11:32.133Z,5.70
2023-04-29T17:14:01.956Z,7.27
2023-04-29T17:16:31.282Z,6.70
2023-04-29T17:19:00.020Z,11.23
2023-04-29T17:21:32.482Z,7.50
2023-04-29T17:24:01.047Z,4.27
2023-04-29T17:26:48.513Z,5.07
2023-04-29T17:29:18.485Z,5.50
2023-04-29T17:31:54.124Z,5.13
2023-04-29T17:34:25.746Z,5.67
2023-04-29T17:36:54.987Z,5.30
2023-04-29T17:39:23.524Z,4.67
2023-04-29T17:41:52.066Z,4.73
2023-04-29T17:44:23.463Z,4.80
2023-04-29T17:46:52.260Z,5.13
2023-04-29T17:49:20.891Z,5.27
2023-04-29T17:51:49.362Z,5.20
2023-04-29T17:54:17.903Z,5.43
2023-04-29T17:56:46.349Z,6.80
2023-04-29T17:59:14.810Z,5.10
2023-04-29T18:01:44.672Z,8.17
2023-04-29T18:04:13.455Z,5.90
2023-04-29T18:06:42.050Z,5.30
2023-04-29T18:09:10.524Z,7.10
2023-04-29T18:11:39.092Z,5.90
2023-04-29T18:14:30.640Z,6.53
2023-04-29T18:17:01.378Z,6.63
2023-04-29T18:19:29.828Z,7.53
2023-04-29T18:21:59.295Z,8.57
2023-04-29T18:24:29.053Z,9.20
2023-04-29T18:26:58.013Z,6.70
2023-04-29T18:29:54.202Z,6.37
2023-04-29T18:32:24.285Z,5.97
2023-04-29T18:34:52.797Z,5.97
2023-04-29T18:37:21.282Z,5.83
2023-04-29T18:39:49.798Z,6.07
2023-04-29T18:42:18.404Z,6.90
2023-04-29T18:44:48.285Z,5.60
2023-04-29T18:47:16.790Z,5.63
2023-04-29T18:49:46.757Z,5.03
2023-04-29T18:52:15.338Z,4.80
2023-04-29T18:54:43.782Z,4.30
2023-04-29T18:57:12.278Z,4.67
2023-04-29T18:59:40.782Z,5.00
2023-04-29T19:02:09.683Z,5.00
2023-04-29T19:05:12.897Z,4.80
2023-04-29T19:07:41.358Z,6.07
2023-04-29T19:10:10.874Z,6.90
2023-04-29T19:12:39.433Z,6.10
2023-04-29T19:15:09.270Z,5.97
2023-04-29T19:17:37.734Z,6.50
2023-04-29T19:20:08.175Z,5.60
2023-04-29T19:22:38.701Z,5.67
2023-04-29T19:25:08.047Z,4.67
2023-04-29T19:27:55.020Z,4.30
2023-04-29T19:30:23.631Z,5.30
2023-04-29T19:32:52.159Z,5.60
2023-04-29T19:35:20.740Z,4.90
2023-04-29T19:37:50.595Z,7.20
2023-04-29T19:40:19.446Z,10.63
2023-04-29T19:42:47.931Z,7.80
2023-04-29T19:45:16.562Z,10.10
2023-04-29T19:47:45.117Z,5.50
2023-04-29T19:50:13.595Z,4.50
2023-04-29T19:52:42.113Z,5.37
2023-04-29T19:55:12.152Z,4.87
2023-04-29T19:57:40.860Z,6.03
2023-04-29T20:00:13.493Z,5.00
2023-04-29T20:02:42.646Z,3.90
2023-04-29T20:05:12.453Z,4.40
2023-04-29T20:07:41.397Z,4.33
2023-04-29T20:10:12.728Z,4.90
2023-04-29T20:12:41.639Z,4.30
2023-04-29T20:15:15.239Z,5.10
2023-04-29T20:17:43.748Z,4.50
2023-04-29T20:20:12.824Z,5.17
2023-04-29T20:22:41.245Z,5.60
2023-04-29T20:25:11.361Z,5.80
2023-04-29T20:27:39.858Z,5.60
2023-04-29T20:30:10.962Z,5.53
2023-04-29T20:32:42.972Z,6.03
2023-04-29T20:35:11.541Z,6.13
2023-04-29T20:37:40.026Z,5.50
2023-04-29T20:40:12.004Z,6.90
2023-04-29T20:42:40.527Z,6.10
2023-04-29T20:45:11.587Z,4.93
2023-04-29T20:47:40.159Z,4.60
2023-04-29T20:50:09.920Z,4.90
2023-04-29T20:52:38.656Z,5.10
2023-04-29T20:55:08.274Z,5.20
2023-04-29T20:58:03.231Z,5.60
2023-04-29T21:00:31.868Z,4.67
2023-04-29T21:03:05.001Z,4.60
2023-04-29T21:05:33.535Z,5.10
2023-04-29T21:08:02.037Z,5.30
2023-04-29T21:10:30.717Z,4.83
2023-04-29T21:12:59.179Z,4.43
2023-04-29T21:15:30.405Z,3.93
2023-04-29T21:17:58.906Z,5.23
2023-04-29T21:20:27.660Z,4.47
2023-04-29T21:22:56.075Z,4.77
2023-04-29T21:25:25.796Z,4.20
2023-04-29T21:27:54.212Z,5.73
2023-04-29T21:30:29.049Z,4.93
2023-04-29T21:32:57.674Z,5.17
2023-04-29T21:35:27.686Z,5.43
2023-04-29T21:38:20.620Z,6.00
2023-04-29T21:40:50.098Z,5.77
2023-04-29T21:43:19.651Z,5.37
2023-04-29T21:45:50.191Z,8.50
2023-04-29T21:48:20.268Z,6.67
2023-04-29T21:50:49.092Z,7.43
2023-04-29T21:53:17.884Z,6.70
2023-04-29T21:55:46.553Z,6.40
2023-04-29T21:58:16.155Z,6.13
2023-04-29T22:00:58.070Z,6.30
2023-04-29T22:03:28.558Z,6.27
2023-04-29T22:05:57.325Z,6.97
2023-04-29T22:08:25.878Z,5.40
2023-04-29T22:10:54.354Z,5.73
2023-04-29T22:13:22.728Z,5.00
2023-04-29T22:15:51.214Z,5.20
2023-04-29T22:18:19.620Z,5.70
2023-04-29T22:21:14.367Z,5.27
2023-04-29T22:23:43.140Z,7.67
2023-04-29T22:26:11.649Z,6.33
2023-04-29T22:28:40.072Z,6.30
2023-04-29T22:31:08.574Z,5.77
2023-04-29T22:33:37.006Z,6.67
2023-04-29T22:36:05.827Z,6.23
2023-04-29T22:38:37.367Z,5.63
2023-04-29T22:41:08.030Z,5.63
2023-04-29T22:43:36.567Z,5.53
2023-04-29T22:46:05.571Z,5.20
2023-04-29T22:48:34.153Z,5.83
2023-04-29T22:51:03.710Z,5.73
2023-04-29T22:53:32.247Z,5.27
2023-04-29T22:56:02.201Z,5.90
2023-04-29T22:58:31.586Z,5.33
2023-04-29T23:01:00.254Z,6.30
2023-04-29T23:03:29.068Z,5.33
2023-04-29T23:05:59.529Z,5.37
2023-04-29T23:08:28.626Z,6.10
2023-04-29T23:10:57.162Z,5.63
2023-04-29T23:13:27.101Z,4.90
2023-04-29T23:15:58.073Z,5.67
2023-04-29T23:18:26.673Z,6.63
2023-04-29T23:20:55.347Z,6.60
2023-04-29T23:23:24.216Z,7.50
2023-04-29T23:25:52.760Z,6.10
2023-04-29T23:28:21.267Z,5.63
2023-04-29T23:30:51.074Z,5.63
2023-04-29T23:33:19.538Z,5.77
2023-04-29T23:35:52.116Z,5.80
2023-04-29T23:38:21.075Z,6.50
2023-04-29T23:40:49.707Z,5.23
2023-04-29T23:43:19.427Z,5.33
2023-04-29T23:45:48.007Z,5.50
2023-04-29T23:48:17.858Z,4.57
2023-04-29T23:50:47.230Z,5.13
2023-04-29T23:53:15.935Z,5.20
2023-04-29T23:55:44.391Z,5.03
2023-04-29T23:58:12.962Z,4.97
